Terminal Aerodrome Forecast
Issued by NWS

Home | Current Version | Previous Version | Graphics & Text | Print | Product List | Glossary On
Versions: 1 2 3 4 5 6 7 8 9 10 11 12 13 14 15 16
000
FTUS43 KABR 012337
TAFPIR
TAF
KPIR 012337Z 0200/0224 32015KT P6SM SCT070
     FM020300 VRB06KT P6SM SKC
     FM021500 35016KT P6SM SKC=

USA.gov is the U.S. government's official web portal to all federal, state and local government web resources and services.